Time;durP1;ratioP1;P1;durP2;ratioP2;P2;SDS_P1;SDS_P2;PMS_P1;PMS_P2;Temp;Humidity;BMP_temperature;BMP_pressure;BME280_temperature;BME280_humidity;BME280_pressure;Samples;Min_cycle;Max_cycle;Signal;HPM_P1;HPM_P2
2022/06/07 00:02:15;;;;;;;12.93;7.07;;;22.40;62.10;;;;;;5012206;28;20421;-70
2022/06/07 00:04:41;;;;;;;11.82;6.72;;;22.40;62.10;;;;;;5012531;28;20121;-70
2022/06/07 00:07:09;;;;;;;14.13;7.55;;;22.40;62.00;;;;;;4995008;28;20041;-70
2022/06/07 00:09:36;;;;;;;11.85;6.68;;;22.40;62.10;;;;;;5012342;28;20390;-70
2022/06/07 00:12:03;;;;;;;13.25;7.50;;;22.40;62.00;;;;;;5011493;28;20030;-70
2022/06/07 00:14:29;;;;;;;10.98;7.20;;;22.40;62.00;;;;;;5012753;28;20033;-70
2022/06/07 00:16:55;;;;;;;12.18;6.75;;;22.40;62.10;;;;;;5012059;28;20376;-70
2022/06/07 00:19:22;;;;;;;13.52;7.53;;;22.40;62.10;;;;;;5011245;28;20037;-70
2022/06/07 00:21:47;;;;;;;12.55;7.60;;;22.40;62.00;;;;;;4994927;28;20379;-70
2022/06/07 00:24:13;;;;;;;12.88;7.25;;;22.40;62.00;;;;;;5011020;28;20057;-70
2022/06/07 00:26:41;;;;;;;11.15;6.53;;;22.40;62.00;;;;;;5011048;28;20525;-70
2022/06/07 00:29:07;;;;;;;10.93;6.82;;;22.40;61.90;;;;;;5010896;28;20026;-70
2022/06/07 00:31:34;;;;;;;11.43;6.40;;;22.40;61.90;;;;;;5010845;28;20037;-70
2022/06/07 00:34:01;;;;;;;11.57;6.95;;;22.40;61.80;;;;;;5010703;28;20065;-70
2022/06/07 00:36:27;;;;;;;11.15;6.35;;;22.40;61.80;;;;;;4994735;28;20386;-70
2022/06/07 00:38:53;;;;;;;11.73;6.88;;;22.40;61.80;;;;;;5010764;28;20022;-70
2022/06/07 00:41:19;;;;;;;12.18;7.03;;;22.40;61.80;;;;;;5011017;28;20482;-70
2022/06/07 00:44:30;;;;;;;11.65;6.70;;;22.40;61.90;;;;;;5010919;28;20065;-70
2022/06/07 00:47:08;;;;;;;10.35;6.13;;;22.40;61.90;;;;;;5011609;28;20042;-70
2022/06/07 00:50:10;;;;;;;11.98;6.60;;;22.40;61.90;;;;;;5010514;28;20041;-70
2022/06/07 00:52:36;;;;;;;12.27;7.00;;;22.40;61.90;;;;;;5009238;28;20037;-70
2022/06/07 00:55:05;;;;;;;12.05;6.78;;;22.40;61.90;;;;;;5011312;28;20410;-71
2022/06/07 00:57:39;;;;;;;12.10;7.07;;;22.40;62.50;;;;;;5009379;28;20045;-70
2022/06/07 01:00:12;;;;;;;10.85;6.65;;;22.40;61.90;;;;;;5010316;28;20028;-70
2022/06/07 01:02:39;;;;;;;10.27;6.63;;;22.40;61.90;;;;;;5010593;28;20359;-70
2022/06/07 01:05:06;;;;;;;10.95;6.32;;;22.40;61.90;;;;;;5010459;28;20041;-70
2022/06/07 01:13:31;;;;;;;12.60;6.97;;;22.40;61.90;;;;;;5008683;28;20042;-70
2022/06/07 01:16:05;;;;;;;11.57;6.43;;;22.40;61.90;;;;;;4992218;28;20084;-70
2022/06/07 01:18:36;;;;;;;10.93;6.32;;;22.40;62.00;;;;;;4994696;28;20030;-70
2022/06/07 01:21:12;;;;;;;11.40;6.68;;;22.40;61.90;;;;;;5009943;28;20390;-70
2022/06/07 01:23:39;;;;;;;11.45;6.53;;;22.40;61.90;;;;;;4993643;28;20482;-70
2022/06/07 01:26:06;;;;;;;10.63;5.93;;;22.40;61.80;;;;;;5011356;28;20034;-70
2022/06/07 01:28:32;;;;;;;10.25;6.10;;;22.40;61.90;;;;;;5009995;28;20409;-70
2022/06/07 01:30:58;;;;;;;12.18;6.07;;;22.40;61.80;;;;;;5010092;28;20026;-70
2022/06/07 01:33:24;;;;;;;11.43;6.35;;;22.40;61.70;;;;;;5009820;28;20402;-70
2022/06/07 01:36:06;;;;;;;10.93;6.05;;;22.40;61.70;;;;;;4993892;28;20080;-70
2022/06/07 01:38:34;;;;;;;12.07;6.47;;;22.40;61.70;;;;;;5009811;28;20030;-70
2022/06/07 01:43:45;;;;;;;10.95;6.07;;;22.40;61.70;;;;;;5009980;28;20049;-70
2022/06/07 01:46:11;;;;;;;9.60;5.97;;;22.40;61.60;;;;;;5011279;28;20037;-70
2022/06/07 01:48:39;;;;;;;11.05;6.70;;;22.40;61.60;;;;;;5009528;28;20109;-70
2022/06/07 01:51:07;;;;;;;8.90;5.93;;;22.40;61.60;;;;;;5009994;28;20458;-70
2022/06/07 01:53:34;;;;;;;9.68;5.88;;;22.40;61.70;;;;;;4993554;28;20030;-70
2022/06/07 01:56:10;;;;;;;9.00;6.00;;;22.40;61.70;;;;;;5009901;28;20109;-70
2022/06/07 01:58:39;;;;;;;11.50;5.65;;;22.40;61.70;;;;;;5009779;28;20085;-70
2022/06/07 02:01:05;;;;;;;10.60;6.30;;;22.40;61.70;;;;;;4977584;28;20025;-70
2022/06/07 02:03:32;;;;;;;11.35;6.13;;;22.40;61.70;;;;;;5009743;28;20030;-70
2022/06/07 02:06:09;;;;;;;9.57;5.50;;;22.30;61.70;;;;;;5009696;28;20398;-70
2022/06/07 02:08:36;;;;;;;9.98;6.03;;;22.40;61.70;;;;;;5010421;28;20029;-70
2022/06/07 02:11:11;;;;;;;10.85;6.22;;;22.30;61.60;;;;;;4997525;28;20037;-70
2022/06/07 02:13:39;;;;;;;8.90;5.38;;;22.30;62.20;;;;;;5013214;28;20101;-70
2022/06/07 02:16:06;;;;;;;10.45;5.68;;;22.40;61.70;;;;;;5014765;28;20062;-70
2022/06/07 02:18:34;;;;;;;9.18;5.60;;;22.40;61.70;;;;;;4996871;28;20061;-70
2022/06/07 02:21:10;;;;;;;9.27;5.32;;;22.40;61.70;;;;;;5014649;28;20029;-70
2022/06/07 02:23:37;;;;;;;8.35;5.10;;;22.40;61.60;;;;;;4997239;28;20073;-70
2022/06/07 02:26:36;;;;;;;8.50;5.65;;;22.40;61.60;;;;;;5013237;28;20030;-70
2022/06/07 02:29:27;;;;;;;10.73;6.05;;;22.40;61.60;;;;;;5013156;28;20037;-70
2022/06/07 02:31:57;;;;;;;9.15;5.80;;;22.40;61.60;;;;;;5013122;28;20030;-70
2022/06/07 02:34:24;;;;;;;8.27;4.85;;;22.40;61.50;;;;;;5012955;28;20395;-70
2022/06/07 02:36:54;;;;;;;10.07;5.88;;;22.30;61.50;;;;;;5012979;28;20459;-70
2022/06/07 02:39:21;;;;;;;9.80;5.32;;;22.40;61.50;;;;;;4996649;28;20041;-70
2022/06/07 02:41:48;;;;;;;10.55;5.95;;;22.40;61.50;;;;;;5014191;28;20494;-70
2022/06/07 02:44:14;;;;;;;9.02;5.53;;;22.40;61.50;;;;;;5013808;28;20030;-70
2022/06/07 02:46:40;;;;;;;9.60;5.18;;;22.40;61.50;;;;;;5012919;28;20052;-70
2022/06/07 02:49:06;;;;;;;9.75;5.63;;;22.40;62.10;;;;;;5012805;28;20120;-70
2022/06/07 02:51:33;;;;;;;10.10;5.78;;;22.30;61.50;;;;;;5012681;28;20037;-70
2022/06/07 02:53:59;;;;;;;8.40;5.40;;;22.40;61.50;;;;;;5012627;28;20053;-70
2022/06/07 02:56:27;;;;;;;9.13;5.30;;;22.40;61.50;;;;;;5014044;28;20026;-70
2022/06/07 02:58:53;;;;;;;11.27;5.63;;;22.30;61.50;;;;;;5012398;28;20491;-70
2022/06/07 03:01:21;;;;;;;9.55;5.85;;;22.40;61.50;;;;;;5012563;28;20022;-70
2022/06/07 03:03:47;;;;;;;10.40;5.80;;;22.40;61.50;;;;;;4996416;28;20040;-70
2022/06/07 03:06:14;;;;;;;8.77;5.00;;;22.30;61.50;;;;;;5013014;28;20152;-70
2022/06/07 03:08:41;;;;;;;8.82;5.20;;;22.40;61.60;;;;;;4996056;28;20422;-70
2022/06/07 03:11:06;;;;;;;7.97;4.90;;;22.40;61.60;;;;;;5012545;28;20037;-70
2022/06/07 03:13:36;;;;;;;9.57;5.38;;;22.30;61.50;;;;;;5012293;28;20034;-70
2022/06/07 03:16:06;;;;;;;9.15;5.50;;;22.30;61.50;;;;;;4996605;28;20042;-70
2022/06/07 03:18:32;;;;;;;8.35;5.10;;;22.40;61.50;;;;;;5011719;28;20029;-70
2022/06/07 03:20:58;;;;;;;7.60;4.70;;;22.40;61.50;;;;;;4995432;28;20096;-70
2022/06/07 03:23:25;;;;;;;8.43;4.88;;;22.40;61.50;;;;;;4996009;28;20080;-70
2022/06/07 03:26:11;;;;;;;9.38;5.30;;;22.30;61.40;;;;;;5012326;28;20040;-70
2022/06/07 03:28:45;;;;;;;9.95;5.68;;;22.30;61.50;;;;;;5011734;28;20116;-70
2022/06/07 03:31:16;;;;;;;8.80;5.03;;;22.40;61.40;;;;;;5012263;28;20022;-70
2022/06/07 03:33:47;;;;;;;8.27;5.25;;;22.40;61.40;;;;;;5012130;28;20049;-70
2022/06/07 03:36:20;;;;;;;7.55;4.78;;;22.40;61.40;;;;;;5012305;28;20022;-70
2022/06/07 03:38:47;;;;;;;9.25;5.10;;;22.40;61.40;;;;;;4995205;28;20550;-70
2022/06/07 03:41:22;;;;;;;9.48;5.10;;;22.40;61.30;;;;;;5012045;28;20052;-70
2022/06/07 03:43:53;;;;;;;8.40;5.43;;;22.40;61.30;;;;;;4996313;28;20084;-70
2022/06/07 03:46:25;;;;;;;8.43;5.10;;;22.40;61.30;;;;;;5012031;28;20034;-70
2022/06/07 03:48:53;;;;;;;8.63;5.13;;;22.40;61.30;;;;;;5011213;28;20069;-70
2022/06/07 03:51:24;;;;;;;;;;;22.40;61.30;;;;;;4996525;28;20044;-70
2022/06/07 03:53:51;;;;;;;7.78;4.95;;;22.40;61.30;;;;;;5012636;28;19921;-70
2022/06/07 03:56:18;;;;;;;9.48;5.60;;;22.40;61.30;;;;;;5013123;28;20036;-70
2022/06/07 03:58:45;;;;;;;8.80;5.18;;;22.40;61.30;;;;;;5011390;28;20030;-70
2022/06/07 04:01:16;;;;;;;8.55;5.15;;;22.40;61.40;;;;;;4995129;28;20433;-70
2022/06/07 04:03:48;;;;;;;8.68;4.90;;;22.30;61.30;;;;;;5011261;28;20486;-70
2022/06/07 04:06:18;;;;;;;8.27;5.05;;;22.40;61.40;;;;;;5011527;28;20041;-70
2022/06/07 04:08:44;;;;;;;8.30;4.90;;;22.40;61.30;;;;;;5011327;28;20080;-70
2022/06/07 04:11:12;;;;;;;10.18;5.47;;;22.30;61.30;;;;;;4995190;28;20033;-70
2022/06/07 04:13:51;;;;;;;7.60;4.60;;;22.30;61.30;;;;;;5010977;28;20033;-70
2022/06/07 04:16:19;;;;;;;8.32;4.55;;;22.30;61.70;;;;;;5011206;28;20026;-70
2022/06/07 04:18:51;;;;;;;7.85;4.50;;;22.30;61.30;;;;;;4995329;28;20483;-70
2022/06/07 04:21:19;;;;;;;8.27;4.65;;;22.30;61.30;;;;;;5011304;28;20390;-70
2022/06/07 04:23:46;;;;;;;8.40;4.88;;;22.30;61.30;;;;;;5010889;28;20040;-69
2022/06/07 04:26:15;;;;;;;8.80;5.07;;;22.30;61.10;;;;;;4995088;28;20069;-70
2022/06/07 04:28:43;;;;;;;7.60;4.93;;;22.30;61.10;;;;;;5010500;28;20116;-70
2022/06/07 04:31:17;;;;;;;7.32;4.65;;;22.30;61.30;;;;;;5011005;28;20556;-70
2022/06/07 04:33:44;;;;;;;6.70;4.45;;;22.30;61.20;;;;;;4994258;28;20045;-70
2022/06/07 04:36:18;;;;;;;7.65;4.55;;;22.30;61.20;;;;;;5012337;28;20061;-70
2022/06/07 04:38:46;;;;;;;8.18;4.70;;;22.30;61.20;;;;;;4994425;28;20092;-70
2022/06/07 04:41:18;;;;;;;7.45;4.97;;;22.40;61.20;;;;;;5011048;28;20101;-70
2022/06/07 04:43:49;;;;;;;7.28;4.55;;;22.40;61.10;;;;;;5010427;28;20041;-70
2022/06/07 04:46:16;;;;;;;8.50;4.80;;;22.40;61.10;;;;;;5010777;28;20061;-70
2022/06/07 04:48:45;;;;;;;6.93;4.60;;;22.30;61.00;;;;;;4994201;28;20448;-70
2022/06/07 04:51:23;;;;;;;7.13;4.63;;;22.40;61.10;;;;;;5012047;28;20426;-70
2022/06/07 04:53:59;;;;;;;7.45;4.57;;;22.40;61.10;;;;;;5010361;28;20041;-70
2022/06/07 04:56:31;;;;;;;5.63;4.10;;;22.40;61.00;;;;;;5010764;28;20052;-70
2022/06/07 04:58:59;;;;;;;6.93;4.83;;;22.40;61.00;;;;;;4993680;28;20503;-70
2022/06/07 05:01:28;;;;;;;8.07;4.80;;;22.30;60.90;;;;;;5010492;28;20038;-70
2022/06/07 05:03:57;;;;;;;8.27;4.25;;;22.40;61.00;;;;;;4994581;28;20068;-70
2022/06/07 05:06:26;;;;;;;6.93;4.15;;;22.30;60.90;;;;;;5010547;28;20034;-70
2022/06/07 05:09:05;;;;;;;8.98;5.05;;;22.30;61.10;;;;;;5010117;28;20466;-70
2022/06/07 05:11:32;;;;;;;7.70;4.63;;;22.30;61.00;;;;;;4994331;28;20041;-70
2022/06/07 05:14:04;;;;;;;9.02;5.13;;;22.30;61.10;;;;;;4993916;28;20482;-70
2022/06/07 05:16:32;;;;;;;7.35;4.45;;;22.30;61.10;;;;;;4994646;28;20026;-70
2022/06/07 05:18:58;;;;;;;7.70;4.82;;;22.30;61.00;;;;;;5010071;28;20026;-70
2022/06/07 05:21:25;;;;;;;6.80;4.50;;;22.30;61.00;;;;;;4978180;28;20030;-70
2022/06/07 05:23:53;;;;;;;7.82;4.70;;;22.30;61.10;;;;;;5010124;28;20137;-70
2022/06/07 05:26:33;;;;;;;6.95;4.85;;;22.30;61.10;;;;;;5010430;28;20038;-70
2022/06/07 05:29:01;;;;;;;8.27;4.57;;;22.30;61.10;;;;;;5009735;28;20446;-70
2022/06/07 05:31:28;;;;;;;7.63;4.70;;;22.30;60.90;;;;;;5010034;28;20037;-70
2022/06/07 05:33:54;;;;;;;6.22;4.30;;;22.30;61.00;;;;;;5021768;23;20053;-72
2022/06/07 05:36:20;;;;;;;7.30;4.60;;;22.30;60.90;;;;;;5009811;28;20450;-72
2022/06/07 05:38:51;;;;;;;8.48;4.20;;;22.40;61.00;;;;;;5009062;28;20026;-72
2022/06/07 05:41:23;;;;;;;;;;;22.30;60.90;;;;;;5010781;28;20026;-72
2022/06/07 05:43:52;;;;;;;7.05;4.20;;;22.40;60.90;;;;;;5010875;28;19909;-72
2022/06/07 05:46:25;;;;;;;6.35;3.97;;;22.40;60.80;;;;;;5014352;28;20026;-72
2022/06/07 05:49:04;;;;;;;7.47;4.45;;;22.40;60.80;;;;;;5013622;28;20037;-73
2022/06/07 05:51:54;;;;;;;6.25;4.30;;;22.40;60.80;;;;;;5000751;28;20049;-72
2022/06/07 05:54:20;;;;;;;9.13;4.90;;;22.40;60.70;;;;;;4997562;28;20037;-72
2022/06/07 05:56:47;;;;;;;6.95;4.55;;;22.40;60.80;;;;;;5014007;28;20108;-72
2022/06/07 05:59:12;;;;;;;7.78;4.60;;;22.40;60.70;;;;;;5014683;28;20110;-73
2022/06/07 06:01:39;;;;;;;7.20;3.90;;;22.40;60.70;;;;;;5013960;28;20364;-72
2022/06/07 06:04:07;;;;;;;7.65;4.57;;;22.40;60.70;;;;;;4997351;28;20124;-72
2022/06/07 06:06:39;;;;;;;6.93;4.38;;;22.40;60.70;;;;;;5014051;28;20083;-73
2022/06/07 06:11:55;;;;;;;7.10;4.37;;;22.30;60.80;;;;;;4998085;28;20124;-72
2022/06/07 06:14:27;;;;;;;8.07;4.78;;;22.40;60.80;;;;;;5013438;28;20041;-72
2022/06/07 06:17:01;;;;;;;8.57;4.65;;;22.30;60.70;;;;;;5013665;28;20088;-72
2022/06/07 06:19:36;;;;;;;10.10;4.60;;;22.30;60.80;;;;;;5013315;28;20121;-72
2022/06/07 06:22:03;;;;;;;7.22;4.60;;;22.30;60.70;;;;;;5013551;28;20026;-72
2022/06/07 06:24:32;;;;;;;5.40;3.47;;;22.30;60.70;;;;;;5015028;28;20042;-72
2022/06/07 06:26:59;;;;;;;7.60;4.40;;;22.30;60.70;;;;;;5013351;28;20030;-73
2022/06/07 06:29:31;;;;;;;7.55;4.40;;;22.30;60.70;;;;;;5013164;28;20105;-72
2022/06/07 06:31:57;;;;;;;7.25;4.10;;;22.30;60.70;;;;;;5013068;28;20034;-72
2022/06/07 06:34:29;;;;;;;6.55;3.75;;;22.30;60.70;;;;;;4996561;28;20503;-72
2022/06/07 06:36:59;;;;;;;6.07;4.53;;;22.30;60.70;;;;;;5013422;28;20073;-72
2022/06/07 06:39:28;;;;;;;7.05;4.22;;;22.30;60.60;;;;;;5014127;28;20026;-72
2022/06/07 06:41:55;;;;;;;6.28;3.90;;;22.30;60.80;;;;;;4996925;28;20022;-72
2022/06/07 06:44:32;;;;;;;6.00;3.70;;;22.40;60.80;;;;;;5013095;28;20057;-72
2022/06/07 06:47:01;;;;;;;7.20;3.97;;;22.40;60.70;;;;;;5013263;28;20036;-72
2022/06/07 06:49:28;;;;;;;6.82;3.72;;;22.40;60.70;;;;;;5012691;28;20077;-72
2022/06/07 06:51:57;;;;;;;6.25;4.22;;;22.40;60.70;;;;;;4996818;28;20045;-72
2022/06/07 06:54:30;;;;;;;6.32;4.25;;;22.40;60.70;;;;;;5012442;28;20034;-72
2022/06/07 06:57:01;;;;;;;7.35;4.22;;;22.30;60.60;;;;;;5011962;28;20033;-72
2022/06/07 06:59:30;;;;;;;5.93;4.15;;;22.40;60.70;;;;;;4996204;28;20441;-72
2022/06/07 07:01:59;;;;;;;7.00;4.32;;;22.30;60.60;;;;;;4996843;28;20124;-72
2022/06/07 07:04:28;;;;;;;6.70;4.40;;;22.30;60.60;;;;;;4996493;28;20045;-72
2022/06/07 07:06:56;;;;;;;6.45;4.45;;;22.40;60.60;;;;;;4996713;28;20112;-72
2022/06/07 07:09:26;;;;;;;6.68;4.30;;;22.40;60.60;;;;;;5012238;28;20506;-72
2022/06/07 07:11:56;;;;;;;6.78;4.13;;;22.40;60.60;;;;;;5012570;28;20038;-72
2022/06/07 07:14:36;;;;;;;5.53;4.18;;;22.40;60.50;;;;;;5012386;28;20037;-72
2022/06/07 07:17:03;;;;;;;5.53;3.78;;;22.40;60.50;;;;;;5012475;28;20032;-72
2022/06/07 07:19:30;;;;;;;5.72;3.80;;;22.40;60.50;;;;;;4995807;28;20086;-72
2022/06/07 07:21:56;;;;;;;7.72;4.07;;;22.40;60.60;;;;;;5013549;28;20079;-72
2022/06/07 07:24:24;;;;;;;6.95;4.10;;;22.40;60.50;;;;;;5012337;28;20041;-72
2022/06/07 07:26:55;;;;;;;8.27;4.15;;;22.40;60.50;;;;;;5012370;28;20575;-72
2022/06/07 07:29:24;;;;;;;6.43;4.07;;;22.30;60.50;;;;;;5011861;28;20061;-72
2022/06/07 07:31:53;;;;;;;5.60;3.95;;;22.40;60.60;;;;;;5012330;28;20069;-72
2022/06/07 07:34:26;;;;;;;5.55;3.65;;;22.40;60.60;;;;;;5011675;28;20380;-72
2022/06/07 07:36:53;;;;;;;6.97;4.20;;;22.30;60.50;;;;;;5012049;28;20030;-72
2022/06/07 07:39:22;;;;;;;7.00;4.05;;;22.30;60.50;;;;;;4995624;28;20033;-72
2022/06/07 07:41:51;;;;;;;6.85;4.20;;;22.40;60.60;;;;;;5012058;28;20483;-71
2022/06/07 07:44:18;;;;;;;5.13;3.53;;;22.40;60.60;;;;;;5011942;28;20070;-72
2022/06/07 07:46:48;;;;;;;5.97;4.00;;;22.40;60.70;;;;;;5011893;28;20105;-72
2022/06/07 07:49:18;;;;;;;7.28;3.90;;;22.40;60.60;;;;;;5011612;28;20120;-72
2022/06/07 07:51:46;;;;;;;6.65;3.75;;;22.40;60.60;;;;;;5011907;28;20050;-72
2022/06/07 07:54:16;;;;;;;5.50;3.77;;;22.40;60.50;;;;;;5011458;28;20030;-72
2022/06/07 07:56:43;;;;;;;6.82;3.97;;;22.40;60.60;;;;;;5013001;28;20482;-72
2022/06/07 07:59:12;;;;;;;6.43;4.03;;;22.40;60.50;;;;;;5011158;28;20144;-72
2022/06/07 08:01:39;;;;;;;7.72;3.90;;;22.40;60.50;;;;;;5011579;28;20022;-72
2022/06/07 08:04:06;;;;;;;4.97;3.47;;;22.50;60.60;;;;;;5011675;28;20026;-72
2022/06/07 08:06:42;;;;;;;5.75;3.58;;;22.40;60.60;;;;;;5011254;28;20041;-72
2022/06/07 08:09:09;;;;;;;5.47;3.75;;;22.40;60.50;;;;;;5011156;28;20037;-72
2022/06/07 08:11:38;;;;;;;6.30;3.70;;;22.40;60.80;;;;;;5012696;28;20037;-74
2022/06/07 08:14:07;;;;;;;6.30;3.50;;;22.50;57.50;;;;;;5012270;28;20125;-74
2022/06/07 08:16:33;;;;;;;10.77;3.65;;;22.50;57.40;;;;;;5011548;28;20080;-73
2022/06/07 08:18:59;;;;;;;6.70;3.90;;;22.50;58.70;;;;;;5010898;28;20030;-73
2022/06/07 08:21:26;;;;;;;10.88;5.53;;;22.50;58.40;;;;;;4995287;28;20022;-74
2022/06/07 08:23:57;;;;;;;14.52;5.80;;;22.50;57.60;;;;;;5011180;28;20142;-73
2022/06/07 08:26:26;;;;;;;11.20;5.60;;;22.50;56.90;;;;;;4995125;28;20026;-74
2022/06/07 08:28:52;;;;;;;10.43;5.32;;;22.50;56.70;;;;;;5010966;28;20090;-74
2022/06/07 08:31:21;;;;;;;10.73;4.40;;;22.50;56.00;;;;;;5011353;28;20060;-74
2022/06/07 08:39:17;;;;;;;16.58;6.13;;;22.50;58.00;;;;;;5011729;28;20466;-74
2022/06/07 08:41:50;;;;;;;18.75;5.60;;;22.50;56.60;;;;;;5012183;28;20025;-73
2022/06/07 08:44:22;;;;;;;17.58;4.50;;;22.50;55.60;;;;;;5011934;28;20530;-73
2022/06/07 08:46:51;;;;;;;14.52;5.63;;;22.50;58.10;;;;;;5012311;28;20036;-73
2022/06/07 08:49:18;;;;;;;16.95;5.32;;;22.50;57.60;;;;;;5010442;28;20044;-74
2022/06/07 08:51:49;;;;;;;21.55;6.38;;;22.50;58.10;;;;;;5012323;28;20037;-73
2022/06/07 08:54:21;;;;;;;18.33;7.07;;;22.50;56.90;;;;;;5010741;28;20034;-73
2022/06/07 08:56:47;;;;;;;17.30;6.07;;;22.50;56.70;;;;;;5012157;28;20067;-73
2022/06/07 08:59:17;;;;;;;14.02;5.63;;;22.50;56.20;;;;;;5011469;28;20487;-73
2022/06/07 09:02:14;;;;;;;17.17;5.97;;;22.60;55.60;;;;;;5011927;28;20029;-73
2022/06/07 09:04:40;;;;;;;11.82;5.15;;;22.60;54.80;;;;;;5010339;28;20038;-73
2022/06/07 09:07:14;;;;;;;16.05;4.22;;;22.60;54.90;;;;;;5010638;28;20513;-73
2022/06/07 09:12:35;;;;;;;8.35;3.90;;;22.60;54.10;;;;;;5011591;28;20026;-73
2022/06/07 09:15:16;;;;;;;10.55;3.92;;;22.60;54.60;;;;;;4994714;28;20538;-74
2022/06/07 09:17:55;;;;;;;13.77;4.20;;;22.60;55.70;;;;;;5011110;28;20022;-73
2022/06/07 09:20:33;;;;;;;11.57;3.58;;;22.60;55.20;;;;;;5011499;28;20110;-73
2022/06/07 09:23:31;;;;;;;13.45;3.88;;;22.50;54.00;;;;;;5010102;28;20022;-73
2022/06/07 09:26:11;;;;;;;8.85;4.28;;;22.50;55.10;;;;;;5011585;28;20030;-73
2022/06/07 09:28:37;;;;;;;9.95;4.60;;;22.50;55.70;;;;;;5009866;28;20026;-73
2022/06/07 09:31:12;;;;;;;11.38;3.80;;;22.50;56.50;;;;;;5010125;28;20566;-73
2022/06/07 09:33:52;;;;;;;9.93;3.97;;;22.50;56.10;;;;;;5011087;28;20029;-73
2022/06/07 09:36:24;;;;;;;11.02;3.45;;;22.50;55.90;;;;;;5011677;28;20489;-73
2022/06/07 09:38:56;;;;;;;8.38;3.88;;;22.40;56.20;;;;;;5010917;28;20486;-73
2022/06/07 09:41:36;;;;;;;8.15;3.03;;;22.40;56.70;;;;;;5010135;28;20379;-73
2022/06/07 09:44:29;;;;;;;12.43;3.55;;;22.40;55.80;;;;;;5011174;28;20030;-73
2022/06/07 09:47:26;;;;;;;10.35;2.80;;;22.40;55.80;;;;;;5011228;28;20114;-72
2022/06/07 09:50:30;;;;;;;16.65;3.67;;;22.50;55.30;;;;;;5004726;28;20038;-73
2022/06/07 09:52:59;;;;;;;83.88;17.10;;;22.50;56.50;;;;;;5011054;28;20037;-74
2022/06/07 09:55:29;;;;;;;55.80;14.30;;;22.50;55.60;;;;;;5011111;28;20053;-73
2022/06/07 09:58:25;;;;;;;65.68;14.98;;;22.60;56.20;;;;;;5009708;28;20087;-73
2022/06/07 10:00:57;;;;;;;49.15;12.13;;;22.60;56.50;;;;;;4991483;28;20027;-74
2022/06/07 10:03:44;;;;;;;37.30;8.95;;;22.60;56.60;;;;;;4990271;28;20033;-73
2022/06/07 10:06:16;;;;;;;37.08;9.35;;;22.60;56.20;;;;;;4990335;28;20070;-74
2022/06/07 10:08:57;;;;;;;39.95;10.23;;;22.60;56.60;;;;;;4991023;28;20030;-73
2022/06/07 10:11:35;;;;;;;33.00;9.07;;;22.60;57.20;;;;;;4990427;28;20038;-74
2022/06/07 10:14:24;;;;;;;31.25;9.27;;;22.60;56.50;;;;;;4991272;28;20050;-73
2022/06/07 10:17:20;;;;;;;46.40;12.07;;;22.60;56.50;;;;;;4963250;28;20042;-73
2022/06/07 10:20:03;;;;;;;33.90;12.77;;;22.50;56.00;;;;;;4991594;28;20038;-73
2022/06/07 10:22:45;;;;;;;38.28;11.82;;;22.50;56.20;;;;;;4990058;28;20030;-72
2022/06/07 10:25:36;;;;;;;31.58;10.32;;;22.50;56.60;;;;;;4991363;28;20506;-72
2022/06/07 10:28:17;;;;;;;26.73;8.95;;;22.40;57.00;;;;;;4990961;28;20384;-73
2022/06/07 10:31:05;;;;;;;23.48;8.20;;;22.40;56.60;;;;;;4993911;28;20399;-73
2022/06/07 10:33:54;;;;;;;24.10;8.65;;;22.40;56.40;;;;;;4993496;28;20034;-73
2022/06/07 10:36:38;;;;;;;24.30;8.07;;;22.50;56.30;;;;;;4995050;28;20034;-73
2022/06/07 10:39:22;;;;;;;22.85;7.63;;;22.50;56.30;;;;;;4994454;28;20109;-73
2022/06/07 10:42:06;;;;;;;19.85;6.88;;;22.50;56.00;;;;;;4993750;28;20022;-73
2022/06/07 10:44:47;;;;;;;18.60;7.22;;;22.40;55.80;;;;;;4994865;28;20076;-72
2022/06/07 10:47:22;;;;;;;24.60;8.07;;;22.40;55.80;;;;;;4994736;28;20050;-73
2022/06/07 10:50:09;;;;;;;21.52;8.27;;;22.40;56.60;;;;;;4993454;28;20042;-73
2022/06/07 10:52:53;;;;;;;22.17;7.07;;;22.50;56.50;;;;;;4994610;28;20030;-73
2022/06/07 10:55:35;;;;;;;24.38;6.95;;;22.50;56.40;;;;;;4994892;28;20394;-73
2022/06/07 10:58:04;;;;;;;19.88;6.75;;;22.60;56.40;;;;;;4994266;28;20402;-72
2022/06/07 11:00:57;;;;;;;21.50;6.07;;;22.50;55.70;;;;;;4994435;28;20031;-72
2022/06/07 11:03:41;;;;;;;17.80;5.45;;;22.50;55.50;;;;;;4993101;28;20530;-72
2022/06/07 11:09:20;;;;;;;25.40;8.20;;;22.50;56.70;;;;;;4993551;28;20018;-72
2022/06/07 11:11:56;;;;;;;24.48;5.82;;;22.50;57.10;;;;;;4994418;28;20034;-71
2022/06/07 11:15:15;;;;;;;18.33;5.20;;;22.50;56.20;;;;;;4993955;28;20029;-72
2022/06/07 11:17:55;;;;;;;18.50;5.53;;;22.50;56.30;;;;;;4932106;29;20488;-72
2022/06/07 11:20:28;;;;;;;16.25;5.80;;;22.50;56.20;;;;;;4994246;28;20073;-71
2022/06/07 11:23:08;;;;;;;18.48;4.95;;;22.50;56.30;;;;;;4992756;28;20060;-72
2022/06/07 11:25:55;;;;;;;16.48;5.45;;;22.40;56.20;;;;;;4993954;28;20377;-72
2022/06/07 11:28:46;;;;;;;18.05;5.65;;;22.40;56.10;;;;;;4993507;28;20030;-72
2022/06/07 11:31:21;;;;;;;16.88;5.28;;;22.40;56.40;;;;;;4987066;28;20403;-72
2022/06/07 11:33:53;;;;;;;13.85;5.38;;;22.40;56.60;;;;;;4993166;28;20487;-71
2022/06/07 11:36:24;;;;;;;17.33;4.68;;;22.40;56.90;;;;;;4993864;28;20062;-72
2022/06/07 11:38:53;;;;;;;15.43;5.53;;;22.40;56.70;;;;;;4993417;28;20026;-72
2022/06/07 11:41:36;;;;;;;16.83;5.15;;;22.40;56.90;;;;;;4991824;28;20033;-72
2022/06/07 11:44:08;;;;;;;13.70;4.75;;;22.50;57.10;;;;;;4993537;28;20050;-72
2022/06/07 11:46:33;;;;;;;14.50;5.15;;;22.50;57.00;;;;;;4992502;28;20403;-72
2022/06/07 11:49:22;;;;;;;13.55;5.25;;;22.50;57.30;;;;;;4993033;28;20045;-72
2022/06/07 11:51:54;;;;;;;13.63;5.00;;;22.50;57.30;;;;;;4993604;28;20114;-72
2022/06/07 11:54:28;;;;;;;10.82;4.82;;;22.50;57.40;;;;;;4992083;28;20521;-72
2022/06/07 11:56:59;;;;;;;14.35;4.75;;;22.50;57.40;;;;;;4991976;28;20030;-71
2022/06/07 11:59:44;;;;;;;18.70;4.50;;;22.50;57.30;;;;;;4991692;28;20030;-71
2022/06/07 12:02:13;;;;;;;13.38;4.82;;;22.50;57.50;;;;;;4976214;28;20065;-71
2022/06/07 12:04:43;;;;;;;14.00;4.82;;;22.50;57.40;;;;;;4992936;28;20044;-71
2022/06/07 12:07:18;;;;;;;12.23;4.97;;;22.50;57.40;;;;;;4993371;28;20093;-71
2022/06/07 12:09:53;;;;;;;18.35;5.22;;;22.50;57.40;;;;;;4992984;28;20050;-71
2022/06/07 12:12:28;;;;;;;13.40;4.65;;;22.50;57.50;;;;;;4992034;28;20034;-71
2022/06/07 12:15:03;;;;;;;12.77;4.63;;;22.60;57.70;;;;;;4992706;28;20088;-71
2022/06/07 12:17:30;;;;;;;13.65;4.15;;;22.60;57.70;;;;;;4993385;28;20247;-72
2022/06/07 12:19:57;;;;;;;14.70;5.18;;;22.60;57.80;;;;;;5007510;28;20061;-72
2022/06/07 12:22:25;;;;;;;15.48;4.68;;;22.60;57.60;;;;;;5011926;28;20018;-72
2022/06/07 12:25:07;;;;;;;10.35;4.50;;;22.60;57.50;;;;;;5012053;28;20034;-72
2022/06/07 12:27:44;;;;;;;16.92;4.82;;;22.60;57.70;;;;;;5010945;28;20072;-72
2022/06/07 12:30:32;;;;;;;21.83;5.10;;;22.60;57.80;;;;;;5011497;28;20124;-72
2022/06/07 12:33:34;;;;;;;18.35;5.43;;;22.70;57.70;;;;;;5012568;28;20034;-72
2022/06/07 12:36:15;;;;;;;17.05;5.22;;;22.70;57.80;;;;;;5012658;28;20034;-73
2022/06/07 12:38:45;;;;;;;26.25;4.90;;;22.70;57.80;;;;;;5011980;28;20026;-72
2022/06/07 12:41:19;;;;;;;15.00;4.90;;;22.70;57.90;;;;;;5011584;28;20037;-72
2022/06/07 12:43:51;;;;;;;20.55;5.72;;;22.70;57.90;;;;;;5012114;28;20061;-73
2022/06/07 12:46:41;;;;;;;17.17;5.38;;;22.70;58.10;;;;;;5010341;28;20112;-72
2022/06/07 12:49:26;;;;;;;19.38;5.07;;;22.70;58.20;;;;;;5010272;28;20033;-72
2022/06/07 12:52:01;;;;;;;13.48;5.20;;;22.70;58.20;;;;;;5010048;28;20386;-72
2022/06/07 12:54:28;;;;;;;17.58;5.03;;;22.60;58.30;;;;;;5011738;28;20491;-72
2022/06/07 12:56:58;;;;;;;16.33;4.85;;;22.70;58.30;;;;;;5012142;28;20033;-72
2022/06/07 12:59:35;;;;;;;16.70;5.18;;;22.70;58.10;;;;;;5011310;28;20101;-72
2022/06/07 13:02:02;;;;;;;21.17;5.55;;;22.70;58.30;;;;;;5009367;28;20022;-72
2022/06/07 13:04:39;;;;;;;15.85;5.38;;;22.70;59.00;;;;;;5009069;28;20072;-72
2022/06/07 13:07:24;;;;;;;14.63;4.93;;;22.70;58.70;;;;;;5010227;28;20394;-73
2022/06/07 13:09:58;;;;;;;17.58;5.93;;;22.70;59.50;;;;;;5004737;28;20045;-73
2022/06/07 13:12:35;;;;;;;18.08;5.57;;;22.80;60.70;;;;;;4991055;28;20042;-72
2022/06/07 13:15:10;;;;;;;19.83;5.32;;;22.80;60.40;;;;;;4991956;28;20034;-72
2022/06/07 13:17:39;;;;;;;15.93;5.03;;;22.80;60.50;;;;;;5001560;28;20052;-72
2022/06/07 13:20:08;;;;;;;12.95;4.72;;;22.80;59.90;;;;;;5011378;28;20459;-72
2022/06/07 13:22:42;;;;;;;14.55;5.85;;;22.80;60.00;;;;;;5011635;28;20457;-72
2022/06/07 13:25:27;;;;;;;14.45;5.00;;;22.80;60.20;;;;;;5011471;28;20030;-72
2022/06/07 13:28:03;;;;;;;15.45;5.32;;;22.70;59.80;;;;;;5010056;28;20033;-72
2022/06/07 13:30:32;;;;;;;22.08;5.10;;;22.70;60.00;;;;;;5011356;28;20072;-72
2022/06/07 13:33:10;;;;;;;14.52;4.78;;;22.70;59.90;;;;;;5010483;28;20046;-72